ADDS METAR Data INFO
IDs: Format: Raw Decoded Include TAF

Data at: 0042 UTC 23 Oct 2017

KMKC 222354Z 12003KT 10SM CLR 17/05 A3008 RMK AO2 SLP185 T01670050 10194 20161 56004
KMKC 222254Z 00000KT 10SM CLR 19/03 A3009 RMK AO2 SLP185 T01890028
KMKC 222154Z 07004KT 10SM CLR 19/03 A3009 RMK AO2 SLP186 T01890028
KMKC 222054Z 01006KT 10SM CLR 19/03 A3009 RMK AO2 SLP188 T01890028 56010
KMKC 221954Z 34009KT 10SM CLR 18/06 A3010 RMK AO2 SLP189 T01830056
KMKC 221854Z 31007KT 10SM CLR 17/07 A3010 RMK AO2 SLP192 T01670067
KMKC 221754Z 31008KT 10SM CLR 16/08 A3012 RMK AO2 SLP199 T01610078 10161 20100 50007
KMKC 221654Z AUTO 31008KT 10SM CLR 14/08 A3014 RMK AO2 SLP203 T01440083
KMKC 221554Z 31008KT 10SM CLR 13/09 A3012 RMK AO2 SLP199 T01330089
KMKC 221454Z 31008KT 10SM CLR 12/08 A3010 RMK AO2 SLP192 T01170083 51013
KMKC 221354Z 30005KT 10SM CLR 11/09 A3009 RMK AO2 SLP188 T01060089
KMKC 221254Z 26004KT 10SM CLR 10/09 A3008 RMK AO2 SLP183 T01000089
KMKC 221154Z 31005KT 10SM CLR 11/09 A3006 RMK AO2 SLP177 P0003 60079 70150 T01060089 10122 20106 51025
KMKC 221054Z 28005KT 10SM OVC080 11/09 A3006 RMK AO2 RAE12 SLP174 P0012 T01060094
KMKC 220954Z 30006KT 10SM -RA BKN050 BKN065 OVC085 11/09 A3003 RMK AO2 SLP167 P0014 T01110094
KMKC 220854Z 02005KT 9SM -RA OVC075 11/10 A2999 RMK AO2 PRESFR SLP151 P0015 60050 T01110100 55000
KMKC 220829Z VRB05KT 8SM -RA OVC080 11/10 A3000 RMK AO2 LTG DSNT S P0009 T01110100
KMKC 220814Z 05004KT 6SM VCTS RA BR OVC080 11/10 A2999 RMK AO2 LTG DSNT ALQDS P0005 T01110100
KMKC 220754Z VRB05KT 8SM -RA OVC085 11/10 A2998 RMK AO2 LTG DSNT SE AND SW SLP149 P0017 T01110100
KMKC 220710Z AUTO 35008KT 9SM -RA OVC085 12/11 A2998 RMK AO2 LTG DSNT E AND S P0005 T01170106
KMKC 220654Z AUTO VRB06KT 7SM VCTS -RA OVC085 12/11 A2997 RMK AO2 LTG DSNT SW TSB24E44 SLP146 P0018 T01170106
KMKC 220644Z AUTO 35005KT 6SM RA BR SCT070 OVC090 12/11 A2997 RMK AO2 LTG DSNT ALQDS TSB24E44 P0015 T01170111
KMKC 220630Z AUTO 35008KT 2 1/2SM TSRA BR FEW043 OVC070 12/11 A2997 RMK AO2 LTG DSNT NE AND NW TSB24 PRESFR P0011 T01170111
KMKC 220554Z AUTO 33009KT 10SM -RA SCT047 BKN060 OVC090 12/11 A2999 RMK AO2 PRESRR SLP151 P0019 60071 T01220106 10239 20117 402560117 53023
KMKC 220539Z AUTO 34014G21KT 10SM RA SCT022 BKN048 OVC090 12/11 A2995 RMK AO2 LTG DSNT SE AND S AND NW P0015 T01170111
KMKC 220529Z AUTO 34013G21KT 9SM RA SCT014 BKN023 OVC060 12/11 A2995 RMK AO2 LTG DSNT S-W P0011 T01220111
KMKC 220458Z AUTO 33010KT 9SM -RA BKN010 OVC015 13/12 A2994 RMK AO2 LTG DSNT NW CIG 006V012 P0002 T01280122
KMKC 220454Z 33012KT 8SM VCTS -RA FEW010 BKN015 OVC025 13/12 A2994 RMK AO2 TSB0358E13B15E30 SLP134 P0019 T01280122
KMKC 220446Z 33009KT 6SM VCTS RA BR SCT010 BKN015 OVC025 13/12 A2995 RMK AO2 TSB0358E13B15E30 P0017 T01280122
KMKC 220430Z 34015G20KT 5SM +RA BR FEW010 BKN016 OVC032 13/13 A2993 RMK AO2 LTG DSNT NE AND S TSB0358E13B15E30 P0012 T01330128
KMKC 220419Z 35008KT 5SM TSRA BR BKN013 BKN022 OVC043 13/13 A2996 RMK AO2 LTG DSNT ALQDS TSB0358E13B15 P0008 T01330128
KMKC 220413Z 34009KT 6SM RA BR BKN016 BKN026 OVC080 14/13 A2995 RMK AO2 LTG DSNT ALQDS TSB0358E13 P0006 T01390128
KMKC 220404Z 33007KT 5SM TSRA BR SCT014 BKN039 OVC090 14/13 A2996 RMK AO2 LTG DSNT S-NW TSB0358 PRESRR P0003 T01390128
KMKC 220354Z 33010KT 10SM VCTS -RA FEW016 FEW041 OVC090 14/13 A2993 RMK AO2 LTG DSNT ALQDS SLP131 P0018 T01390128
KMKC 220350Z 33012KT 10SM VCTS -RA FEW016 BKN085 OVC100 14/13 A2992 RMK AO2 LTG DSNT ALQDS P0016
KMKC 220310Z 34008KT 8SM -RA FEW060 OVC095 14/13 A2992 RMK AO2 LTG DSNT ALQDS P0004 T01440133
KMKC 220254Z 33013G17KT 4SM VCTS RA BR FEW013 BKN070 OVC090 14/14 A2991 RMK AO2 PK WND 33028/0228 LTG DSNT ALQDS TSE52 SLP123 P0012 60015 T01440139 53034
KMKC 220242Z 31008G22KT 6SM -TSRA BR SCT007 BKN044 OVC070 14/14 A2992 RMK AO2 PK WND 33028/0228 LTG DSNT ALQDS PRESRR P0009 T01440139
KMKC 220235Z 32013G28KT 2SM TSRA BR SCT007 BKN018 OVC035 15/14 A2990 RMK AO2 PK WND 33028/0228 LTG DSNT ALQDS P0007 T01500144
KMKC 220227Z 33017G26KT 1 1/2SM +TSRA BR SCT007 BKN013 OVC031 17/17 A2988 RMK AO2 PK WND 32026/0227 LTG DSNT ALQDS P0005 T01670167
KMKC 220218Z 30010KT 4SM TSRA BR SCT008 BKN014 OVC032 17/17 A2988 RMK AO2 LTG DSNT ALQDS P0003 T01670167
KMKC 220210Z 27006KT 2 1/2SM +TSRA BR FEW006 BKN022 OVC030 17/17 A2989 RMK AO2 LTG DSNT ALQDS PRESRR P0002 T01670167
KMKC 220154Z 33006G16KT 1 1/4SM +TSRA BR FEW006 BKN045 OVC050 17/17 A2986 RMK AO2 LTG DSNT ALQDS RAB14 TSB11 SLP108 P0003 T01670167
KMKC 220146Z 27010G16KT 2 1/2SM +TSRA BR FEW006 OVC047 17/17 A2987 RMK AO2 LTG DSNT ALQDS RAB14 TSB11 PRESRR P0002 T01720167
KMKC 220117Z 30008KT 8SM -TSRA BKN040 OVC050 18/16 A2985 RMK AO2 LTG DSNT ALQDS RAB14 TSB11 P0001 T01830156
KMKC 220054Z 32007KT 10SM VCTS OVC038 19/16 A2983 RMK AO2 LTG DSNT ALQDS RAB2355E12 SLP095 P0000 T01890156
KMKC 220025Z VRB03G17KT 10SM VCTS BKN034 BKN047 OVC110 21/15 A2982 RMK AO2 LTG DSNT SW-N RAB2355E12 P0000 T02060150
KMKC 212354Z 17006KT 10SM OVC090 24/19 A2980 RMK AO2 LTG DSNT SW-N RAE2259 SLP086 P0000 60000 T02390189 10256 20233 53001
KMKC 212254Z 14008KT 10SM -RA FEW038 SCT044 OVC075 23/19 A2978 RMK AO2 LTG DSNT W RAB41 SLP080 P0000 T02330194
KMKC 212154Z 17008KT 10SM SCT041 OVC070 25/18 A2980 RMK AO2 SLP083 T02500183
KMKC 212054Z 18010KT 10SM FEW036 OVC070 25/18 A2980 RMK AO2 SLP084 T02500183 56007
KMKC 211954Z AUTO 19012G21KT 10SM SCT036 BKN043 OVC060 25/18 A2981 RMK AO2 SLP087 T02500183
KMKC 211854Z 19011KT 10SM BKN034 OVC042 24/18 A2981 RMK AO2 PK WND 20028/1826 SLP088 T02440183
KMKC 211754Z 20015G24KT 10SM SCT032 24/18 A2982 RMK AO2 PK WND 17026/1705 SLP091 T02440183 10244 20189 58010
KMKC 211732Z 19013G23KT 10SM FEW027 24/18 A2982 RMK AO2 PK WND 17026/1705 T02440183
KMKC 211706Z 17018G26KT 10SM BKN027 BKN050 23/18 A2983 RMK AO2 PK WND 17026/1705 T02330178
KMKC 211654Z 18018G25KT 10SM SCT024 BKN030 OVC050 23/18 A2983 RMK AO2 SLP096 T02280178
KMKC 211554Z 19015G25KT 10SM OVC021 21/17 A2985 RMK AO2 SLP101 T02110167
KMKC 211454Z 18015G20KT 10SM OVC021 20/16 A2985 RMK AO2 PK WND 19026/1442 SLP102 T02000156 53003
KMKC 211354Z 18010G19KT 10SM OVC022 19/15 A2985 RMK AO2 SLP102 T01940150
KMKC 211302Z 18012G22KT 10SM BKN023 BKN048 19/14 A2983 RMK AO2 T01890144
KMKC 211254Z 18014G19KT 10SM SCT023 BKN047 19/14 A2983 RMK AO2 SLP096 T01890144